Time,TemperatureF,DewpointF,PressureIn,WindDirection,WindDirectionDegrees,WindSpeedMPH,WindSpeedGustMPH,Humidity,HourlyPrecipIn,Conditions,Clouds,dailyrainin,SoftwareType,DateUTC
2013-07-14 00:02:00,68.4,59.0,30.14,SE,124,0.0,4.0,72,0.00,,,0.00,meteohub,2013-07-14 05:02:00,
2013-07-14 00:07:00,68.4,59.0,30.14,SE,124,0.0,4.0,72,0.00,,,0.00,meteohub,2013-07-14 05:07:00,
2013-07-14 00:12:00,68.4,59.0,30.14,SE,124,0.0,3.0,72,0.00,,,0.00,meteohub,2013-07-14 05:12:00,
2013-07-14 00:17:00,68.0,58.6,30.14,SE,124,0.0,2.0,72,0.00,,,0.00,meteohub,2013-07-14 05:17:00,
2013-07-14 00:22:00,67.8,58.8,30.14,SE,124,0.0,3.0,73,0.00,,,0.00,meteohub,2013-07-14 05:22:00,
2013-07-14 00:27:00,67.6,58.6,30.14,SE,124,0.0,3.0,73,0.00,,,0.00,meteohub,2013-07-14 05:27:00,
2013-07-14 00:32:00,67.8,58.8,30.14,SE,124,0.0,3.0,73,0.00,,,0.00,meteohub,2013-07-14 05:32:00,
2013-07-14 00:37:00,67.6,59.0,30.14,SE,124,0.0,2.0,74,0.00,,,0.00,meteohub,2013-07-14 05:37:00,
2013-07-14 00:42:00,67.3,59.0,30.15,SE,124,0.0,2.0,75,0.00,,,0.00,meteohub,2013-07-14 05:42:00,
2013-07-14 00:47:00,66.7,58.6,30.15,SE,124,0.0,2.0,75,0.00,,,0.00,meteohub,2013-07-14 05:47:00,
2013-07-14 00:52:00,66.4,58.6,30.15,SE,124,0.0,2.0,76,0.00,,,0.00,meteohub,2013-07-14 05:52:00,
2013-07-14 00:57:00,66.0,58.6,30.15,SE,124,0.0,2.0,77,0.00,,,0.00,meteohub,2013-07-14 05:57:00,
2013-07-14 01:02:00,65.8,58.5,30.16,SE,124,0.0,2.0,77,0.00,,,0.00,meteohub,2013-07-14 06:02:00,
2013-07-14 01:07:00,65.7,58.6,30.16,SE,124,0.0,2.0,78,0.00,,,0.00,meteohub,2013-07-14 06:07:00,
2013-07-14 01:12:00,65.5,58.8,30.16,SE,124,0.0,2.0,79,0.00,,,0.00,meteohub,2013-07-14 06:12:00,
2013-07-14 01:17:00,65.1,58.5,30.16,SE,124,0.0,1.0,79,0.00,,,0.00,meteohub,2013-07-14 06:17:00,
2013-07-14 01:22:00,64.9,58.6,30.16,SE,124,0.0,1.0,80,0.00,,,0.00,meteohub,2013-07-14 06:22:00,
2013-07-14 01:27:00,64.4,58.5,30.16,SE,124,0.0,1.0,81,0.00,,,0.00,meteohub,2013-07-14 06:27:00,
2013-07-14 01:32:00,63.9,58.3,30.17,SE,124,0.0,1.0,82,0.00,,,0.00,meteohub,2013-07-14 06:32:00,
2013-07-14 01:37:00,63.7,58.5,30.16,SE,124,0.0,3.0,83,0.00,,,0.00,meteohub,2013-07-14 06:37:00,
2013-07-14 01:42:00,63.7,58.8,30.16,SE,124,0.0,3.0,84,0.00,,,0.00,meteohub,2013-07-14 06:42:00,
2013-07-14 01:47:00,63.7,58.8,30.16,SE,124,0.0,3.0,84,0.00,,,0.00,meteohub,2013-07-14 06:47:00,
2013-07-14 01:52:00,63.5,58.6,30.17,SE,124,0.0,1.0,84,0.00,,,0.00,meteohub,2013-07-14 06:52:00,
2013-07-14 01:57:00,63.1,58.6,30.17,SE,124,0.0,1.0,85,0.00,,,0.00,meteohub,2013-07-14 06:57:00,
2013-07-14 02:02:00,63.1,58.6,30.17,SE,124,0.0,1.0,85,0.00,,,0.00,meteohub,2013-07-14 07:02:00,
2013-07-14 02:07:00,63.1,58.6,30.17,SE,124,0.0,2.0,85,0.00,,,0.00,meteohub,2013-07-14 07:07:00,
2013-07-14 02:12:00,63.1,58.6,30.17,SE,124,0.0,2.0,85,0.00,,,0.00,meteohub,2013-07-14 07:12:00,
2013-07-14 02:17:00,63.3,58.8,30.17,SE,124,0.0,1.0,85,0.00,,,0.00,meteohub,2013-07-14 07:17:00,
2013-07-14 02:22:00,63.5,58.8,30.17,SE,124,0.0,0.0,85,0.00,,,0.00,meteohub,2013-07-14 07:22:00,
2013-07-14 02:27:00,63.3,58.8,30.17,SE,124,0.0,0.0,85,0.00,,,0.00,meteohub,2013-07-14 07:27:00,
2013-07-14 02:32:00,63.3,58.8,30.17,SE,124,0.0,0.0,85,0.00,,,0.00,meteohub,2013-07-14 07:32:00,
2013-07-14 02:37:00,63.3,58.8,30.17,SE,124,0.0,0.0,85,0.00,,,0.00,meteohub,2013-07-14 07:37:00,
2013-07-14 02:42:00,63.3,58.8,30.17,SE,124,0.0,0.0,85,0.00,,,0.00,meteohub,2013-07-14 07:42:00,
2013-07-14 02:47:00,63.1,58.8,30.17,SE,124,0.0,0.0,86,0.00,,,0.00,meteohub,2013-07-14 07:47:00,
2013-07-14 02:52:00,63.3,58.8,30.17,SE,124,0.0,0.0,85,0.00,,,0.00,meteohub,2013-07-14 07:52:00,
2013-07-14 02:57:00,63.5,58.8,30.17,SE,124,0.0,0.0,85,0.00,,,0.00,meteohub,2013-07-14 07:57:00,
2013-07-14 03:02:00,63.7,59.0,30.17,SE,124,0.0,0.0,85,0.00,,,0.00,meteohub,2013-07-14 08:02:00,
2013-07-14 03:07:00,63.7,59.0,30.17,SE,124,0.0,0.0,85,0.00,,,0.00,meteohub,2013-07-14 08:07:00,
2013-07-14 03:12:00,63.5,58.8,30.17,SE,124,0.0,0.0,85,0.00,,,0.00,meteohub,2013-07-14 08:12:00,
2013-07-14 03:17:00,63.5,58.8,30.17,SE,124,0.0,0.0,85,0.00,,,0.00,meteohub,2013-07-14 08:17:00,
2013-07-14 03:22:00,63.3,58.8,30.17,SE,124,0.0,0.0,85,0.00,,,0.00,meteohub,2013-07-14 08:22:00,
2013-07-14 03:27:00,63.3,58.8,30.17,SE,124,0.0,0.0,85,0.00,,,0.00,meteohub,2013-07-14 08:27:00,
2013-07-14 03:32:00,63.3,58.8,30.17,SE,124,0.0,0.0,85,0.00,,,0.00,meteohub,2013-07-14 08:32:00,
2013-07-14 03:37:00,63.5,58.8,30.17,SE,124,0.0,0.0,85,0.00,,,0.00,meteohub,2013-07-14 08:37:00,
2013-07-14 03:42:00,63.7,59.0,30.17,SE,124,0.0,0.0,85,0.00,,,0.00,meteohub,2013-07-14 08:42:00,
2013-07-14 03:47:00,63.9,59.2,30.17,SE,124,0.0,0.0,85,0.00,,,0.00,meteohub,2013-07-14 08:47:00,
2013-07-14 03:52:00,63.9,59.2,30.16,SE,124,0.0,0.0,85,0.00,,,0.00,meteohub,2013-07-14 08:52:00,
2013-07-14 03:57:00,63.7,59.0,30.16,SE,124,0.0,0.0,85,0.00,,,0.00,meteohub,2013-07-14 08:57:00,
2013-07-14 04:02:00,63.5,58.8,30.17,SE,124,0.0,0.0,85,0.00,,,0.00,meteohub,2013-07-14 09:02:00,
2013-07-14 04:07:00,63.5,58.8,30.17,SE,124,0.0,0.0,85,0.00,,,0.00,meteohub,2013-07-14 09:07:00,
2013-07-14 04:12:00,63.3,58.8,30.17,SE,124,0.0,2.0,85,0.00,,,0.00,meteohub,2013-07-14 09:12:00,
2013-07-14 04:17:00,63.3,58.8,30.17,SE,124,0.0,2.0,85,0.00,,,0.00,meteohub,2013-07-14 09:17:00,
2013-07-14 04:22:00,63.3,59.0,30.17,SE,124,0.0,1.0,86,0.00,,,0.00,meteohub,2013-07-14 09:22:00,
2013-07-14 04:27:00,63.3,59.0,30.17,SE,124,0.0,1.0,86,0.00,,,0.00,meteohub,2013-07-14 09:27:00,
2013-07-14 04:32:00,63.3,59.0,30.17,SE,124,0.0,1.0,86,0.00,,,0.00,meteohub,2013-07-14 09:32:00,
2013-07-14 04:37:00,63.3,59.0,30.17,SE,124,0.0,1.0,86,0.00,,,0.00,meteohub,2013-07-14 09:37:00,
2013-07-14 04:42:00,63.7,59.0,30.17,SE,124,0.0,1.0,85,0.00,,,0.00,meteohub,2013-07-14 09:42:00,
2013-07-14 04:47:00,63.7,59.0,30.17,SE,124,0.0,0.0,85,0.00,,,0.00,meteohub,2013-07-14 09:47:00,
2013-07-14 04:52:00,63.3,58.8,30.17,SE,124,0.0,1.0,85,0.00,,,0.00,meteohub,2013-07-14 09:52:00,
2013-07-14 04:57:00,63.3,59.0,30.17,SE,124,0.0,1.0,86,0.00,,,0.00,meteohub,2013-07-14 09:57:00,
2013-07-14 05:02:00,63.3,59.0,30.16,SE,124,0.0,1.0,86,0.00,,,0.00,meteohub,2013-07-14 10:02:00,
2013-07-14 05:07:00,63.3,59.0,30.17,SE,124,0.0,0.0,86,0.00,,,0.00,meteohub,2013-07-14 10:07:00,
2013-07-14 05:12:00,63.7,59.4,30.17,SE,124,0.0,0.0,86,0.00,,,0.00,meteohub,2013-07-14 10:12:00,
2013-07-14 05:17:00,63.7,59.0,30.17,SE,124,0.0,0.0,85,0.00,,,0.00,meteohub,2013-07-14 10:17:00,
2013-07-14 05:22:00,63.7,59.0,30.16,SE,124,0.0,0.0,85,0.00,,,0.00,meteohub,2013-07-14 10:22:00,
2013-07-14 05:27:00,63.5,58.8,30.16,SE,124,0.0,0.0,85,0.00,,,0.00,meteohub,2013-07-14 10:27:00,
2013-07-14 05:32:00,63.3,58.8,30.17,SE,124,0.0,0.0,85,0.00,,,0.00,meteohub,2013-07-14 10:32:00,
2013-07-14 05:37:00,63.1,58.8,30.17,SE,124,0.0,0.0,86,0.00,,,0.00,meteohub,2013-07-14 10:37:00,
2013-07-14 05:42:00,63.0,58.6,30.16,SE,124,0.0,0.0,86,0.00,,,0.00,meteohub,2013-07-14 10:42:00,
2013-07-14 05:47:00,63.1,58.8,30.17,SE,124,0.0,0.0,86,0.00,,,0.00,meteohub,2013-07-14 10:47:00,
2013-07-14 05:52:00,63.5,59.2,30.17,SE,124,0.0,0.0,86,0.00,,,0.00,meteohub,2013-07-14 10:52:00,
2013-07-14 05:57:00,64.0,59.7,30.17,SE,124,0.0,0.0,86,0.00,,,0.00,meteohub,2013-07-14 10:57:00,
2013-07-14 06:02:00,64.6,59.9,30.17,SE,124,0.0,0.0,85,0.00,,,0.00,meteohub,2013-07-14 11:02:00,
2013-07-14 06:07:00,64.9,59.9,30.16,SE,124,0.0,0.0,84,0.00,,,0.00,meteohub,2013-07-14 11:07:00,
2013-07-14 06:12:00,65.1,60.1,30.16,SE,124,0.0,0.0,84,0.00,,,0.00,meteohub,2013-07-14 11:12:00,
2013-07-14 06:17:00,65.5,60.4,30.17,SE,124,0.0,0.0,84,0.00,,,0.00,meteohub,2013-07-14 11:17:00,
2013-07-14 06:22:00,65.8,60.8,30.17,SE,124,0.0,0.0,84,0.00,,,0.00,meteohub,2013-07-14 11:22:00,
2013-07-14 06:27:00,66.2,61.2,30.17,SE,124,0.0,0.0,84,0.00,,,0.00,meteohub,2013-07-14 11:27:00,
2013-07-14 06:32:00,66.6,61.5,30.16,SE,124,0.0,0.0,84,0.00,,,0.00,meteohub,2013-07-14 11:32:00,
2013-07-14 06:37:00,67.1,61.7,30.17,SE,124,0.0,1.0,83,0.00,,,0.00,meteohub,2013-07-14 11:37:00,
2013-07-14 06:42:00,67.6,62.6,30.17,SE,124,0.0,1.0,84,0.00,,,0.00,meteohub,2013-07-14 11:42:00,
2013-07-14 06:47:00,68.2,63.1,30.17,SE,124,0.0,1.0,84,0.00,,,0.00,meteohub,2013-07-14 11:47:00,
2013-07-14 06:52:00,68.9,63.5,30.17,SE,124,1.0,0.0,83,0.00,,,0.00,meteohub,2013-07-14 11:52:00,
2013-07-14 06:57:00,69.8,64.0,30.17,SE,124,2.0,3.0,82,0.00,,,0.00,meteohub,2013-07-14 11:57:00,
2013-07-14 07:03:00,70.5,64.8,30.17,SE,124,2.0,3.0,82,0.00,,,0.00,meteohub,2013-07-14 12:03:00,
2013-07-14 07:08:00,71.2,65.1,30.17,SE,124,1.0,4.0,81,0.00,,,0.00,meteohub,2013-07-14 12:08:00,
2013-07-14 07:13:00,72.0,65.5,30.17,SE,124,2.0,4.0,80,0.00,,,0.00,meteohub,2013-07-14 12:13:00,
2013-07-14 07:18:00,72.5,65.7,30.17,SE,124,0.0,4.0,79,0.00,,,0.00,meteohub,2013-07-14 12:18:00,
2013-07-14 07:23:00,73.0,66.2,30.17,SE,124,0.0,4.0,79,0.00,,,0.00,meteohub,2013-07-14 12:23:00,
2013-07-14 07:28:00,73.6,66.4,30.17,SE,124,0.0,3.0,78,0.00,,,0.00,meteohub,2013-07-14 12:28:00,
2013-07-14 07:34:00,73.8,66.4,30.17,SE,124,0.0,4.0,78,0.00,,,0.00,meteohub,2013-07-14 12:34:00,
2013-07-14 07:39:00,73.9,66.2,30.17,SE,146,1.0,4.0,77,0.00,,,0.00,meteohub,2013-07-14 12:39:00,
2013-07-14 07:44:00,74.1,66.4,30.18,SE,146,5.0,5.0,77,0.00,,,0.00,meteohub,2013-07-14 12:44:00,
2013-07-14 07:49:00,74.5,66.7,30.17,SE,145,1.0,4.0,77,0.00,,,0.00,meteohub,2013-07-14 12:49:00,
2013-07-14 07:54:00,74.7,66.9,30.17,SE,145,5.0,6.0,77,0.00,,,0.00,meteohub,2013-07-14 12:54:00,
2013-07-14 08:00:00,74.8,67.5,30.18,SE,136,0.0,6.0,78,0.00,,,0.00,meteohub,2013-07-14 13:00:00,
2013-07-14 08:05:00,75.2,67.5,30.17,SE,136,1.0,7.0,77,0.00,,,0.00,meteohub,2013-07-14 13:05:00,
2013-07-14 08:10:00,75.6,68.2,30.18,SE,136,0.0,7.0,78,0.00,,,0.00,meteohub,2013-07-14 13:10:00,
2013-07-14 08:15:00,75.7,68.0,30.18,SE,130,3.0,6.0,77,0.00,,,0.00,meteohub,2013-07-14 13:15:00,
2013-07-14 08:20:00,75.9,68.2,30.18,SSE,157,4.0,9.0,77,0.00,,,0.00,meteohub,2013-07-14 13:20:00,
2013-07-14 08:25:00,76.1,68.4,30.18,SSE,167,2.0,9.0,77,0.00,,,0.00,meteohub,2013-07-14 13:25:00,
2013-07-14 08:31:00,76.5,69.1,30.18,SSE,163,0.0,7.0,78,0.00,,,0.00,meteohub,2013-07-14 13:31:00,
2013-07-14 08:36:00,76.6,68.9,30.18,SSE,161,3.0,8.0,77,0.00,,,0.00,meteohub,2013-07-14 13:36:00,
2013-07-14 08:41:00,76.8,69.1,30.18,SSE,153,4.0,8.0,77,0.00,,,0.00,meteohub,2013-07-14 13:41:00,
2013-07-14 08:46:00,77.2,69.1,30.18,SSE,147,6.0,8.0,76,0.00,,,0.00,meteohub,2013-07-14 13:46:00,
2013-07-14 08:51:00,77.2,69.4,30.18,SSE,149,8.0,8.0,77,0.00,,,0.00,meteohub,2013-07-14 13:51:00,
2013-07-14 08:56:00,77.4,69.3,30.18,SE,130,6.0,11.0,76,0.00,,,0.00,meteohub,2013-07-14 13:56:00,
2013-07-14 09:02:00,77.5,69.8,30.18,SSW,198,4.0,11.0,77,0.00,,,0.00,meteohub,2013-07-14 14:02:00,
2013-07-14 09:07:00,77.7,69.1,30.18,South,184,5.0,11.0,75,0.00,,,0.00,meteohub,2013-07-14 14:07:00,
2013-07-14 09:12:00,78.1,69.4,30.18,SE,140,5.0,11.0,75,0.00,,,0.00,meteohub,2013-07-14 14:12:00,
2013-07-14 09:17:00,78.3,69.6,30.19,SSE,161,9.0,10.0,75,0.00,,,0.00,meteohub,2013-07-14 14:17:00,
2013-07-14 09:22:00,78.4,69.8,30.19,South,182,4.0,10.0,75,0.00,,,0.00,meteohub,2013-07-14 14:22:00,
2013-07-14 09:27:00,78.6,70.0,30.19,South,186,9.0,11.0,75,0.00,,,0.00,meteohub,2013-07-14 14:27:00,
2013-07-14 09:32:00,79.2,70.5,30.19,SE,139,4.0,12.0,75,0.00,,,0.00,meteohub,2013-07-14 14:32:00,
2013-07-14 09:37:00,79.3,70.3,30.19,SE,138,5.0,12.0,74,0.00,,,0.00,meteohub,2013-07-14 14:37:00,
2013-07-14 09:42:00,79.7,70.3,30.18,SE,142,9.0,12.0,73,0.00,,,0.00,meteohub,2013-07-14 14:42:00,
2013-07-14 09:47:00,79.9,70.0,30.18,SE,125,6.0,13.0,72,0.00,,,0.00,meteohub,2013-07-14 14:47:00,
2013-07-14 09:52:00,80.1,70.2,30.19,SE,124,8.0,13.0,72,0.00,,,0.00,meteohub,2013-07-14 14:52:00,
2013-07-14 09:57:00,80.2,70.0,30.18,ESE,119,4.0,12.0,71,0.00,,,0.00,meteohub,2013-07-14 14:57:00,
2013-07-14 10:02:00,80.4,70.5,30.18,South,172,4.0,13.0,72,0.00,,,0.00,meteohub,2013-07-14 15:02:00,
2013-07-14 10:07:00,81.0,70.7,30.19,South,178,4.0,13.0,71,0.00,,,0.00,meteohub,2013-07-14 15:07:00,
2013-07-14 10:12:00,81.0,70.2,30.19,South,173,6.0,12.0,70,0.00,,,0.00,meteohub,2013-07-14 15:12:00,
2013-07-14 10:17:00,81.0,70.2,30.19,SE,134,7.0,12.0,70,0.00,,,0.00,meteohub,2013-07-14 15:17:00,
2013-07-14 10:22:00,81.1,70.3,30.19,SE,127,6.0,13.0,70,0.00,,,0.00,meteohub,2013-07-14 15:22:00,
2013-07-14 10:27:00,81.7,70.2,30.19,SE,132,6.0,13.0,68,0.00,,,0.00,meteohub,2013-07-14 15:27:00,
2013-07-14 10:32:00,81.7,70.2,30.19,SSE,149,5.0,13.0,68,0.00,,,0.00,meteohub,2013-07-14 15:32:00,
2013-07-14 10:37:00,81.9,70.3,30.19,SE,130,8.0,10.0,68,0.00,,,0.00,meteohub,2013-07-14 15:37:00,
2013-07-14 10:42:00,82.4,70.7,30.19,SE,144,8.0,11.0,68,0.00,,,0.00,meteohub,2013-07-14 15:42:00,
2013-07-14 10:47:00,82.8,69.8,30.19,South,191,8.0,11.0,65,0.00,,,0.00,meteohub,2013-07-14 15:47:00,
2013-07-14 10:52:00,82.2,69.8,30.19,SSE,159,6.0,11.0,66,0.00,,,0.00,meteohub,2013-07-14 15:52:00,
2013-07-14 10:57:00,82.0,69.6,30.19,SSE,165,8.0,11.0,66,0.00,,,0.00,meteohub,2013-07-14 15:57:00,
2013-07-14 11:02:00,82.0,69.6,30.19,SSW,202,8.0,11.0,66,0.00,,,0.00,meteohub,2013-07-14 16:02:00,
2013-07-14 11:07:00,82.0,69.6,30.19,SSW,202,7.0,12.0,66,0.00,,,0.00,meteohub,2013-07-14 16:07:00,
2013-07-14 11:12:00,82.2,70.2,30.19,South,175,5.0,12.0,67,0.00,,,0.00,meteohub,2013-07-14 16:12:00,
2013-07-14 11:17:00,82.4,69.4,30.19,South,190,7.0,12.0,65,0.00,,,0.00,meteohub,2013-07-14 16:17:00,
2013-07-14 11:22:00,82.4,70.0,30.19,SW,215,6.0,11.0,66,0.00,,,0.00,meteohub,2013-07-14 16:22:00,
2013-07-14 11:27:00,82.8,70.2,30.19,SSW,198,2.0,17.0,66,0.00,,,0.00,meteohub,2013-07-14 16:27:00,
2013-07-14 11:32:00,82.9,70.0,30.20,SW,223,8.0,17.0,65,0.00,,,0.00,meteohub,2013-07-14 16:32:00,
2013-07-14 11:37:00,83.1,70.5,30.20,SW,215,7.0,17.0,66,0.00,,,0.00,meteohub,2013-07-14 16:37:00,
2013-07-14 11:42:00,83.1,70.2,30.19,SSW,196,7.0,11.0,65,0.00,,,0.00,meteohub,2013-07-14 16:42:00,
2013-07-14 11:47:00,83.3,70.3,30.19,SSW,208,7.0,10.0,65,0.00,,,0.00,meteohub,2013-07-14 16:47:00,
2013-07-14 11:52:00,83.3,68.9,30.19,SW,218,5.0,11.0,62,0.00,,,0.00,meteohub,2013-07-14 16:52:00,
2013-07-14 11:57:00,83.5,69.1,30.19,SSE,148,4.0,11.0,62,0.00,,,0.00,meteohub,2013-07-14 16:57:00,
2013-07-14 12:02:00,83.7,69.3,30.20,South,180,5.0,11.0,62,0.00,,,0.00,meteohub,2013-07-14 17:02:00,
2013-07-14 12:07:00,83.7,69.8,30.19,SSW,209,7.0,9.0,63,0.00,,,0.00,meteohub,2013-07-14 17:07:00,
2013-07-14 12:12:00,83.8,69.4,30.19,South,180,0.0,10.0,62,0.00,,,0.00,meteohub,2013-07-14 17:12:00,
2013-07-14 12:17:00,84.2,69.8,30.19,South,184,5.0,10.0,62,0.00,,,0.00,meteohub,2013-07-14 17:17:00,
2013-07-14 12:22:00,84.0,69.6,30.20,SSW,192,6.0,10.0,62,0.00,,,0.00,meteohub,2013-07-14 17:22:00,
2013-07-14 12:27:00,83.8,70.0,30.20,SW,221,5.0,10.0,63,0.00,,,0.00,meteohub,2013-07-14 17:27:00,
2013-07-14 12:32:00,84.0,70.0,30.19,South,190,8.0,10.0,63,0.00,,,0.00,meteohub,2013-07-14 17:32:00,
2013-07-14 12:37:00,84.4,68.9,30.19,SSW,193,8.0,11.0,60,0.00,,,0.00,meteohub,2013-07-14 17:37:00,
2013-07-14 12:42:00,84.4,68.5,30.19,South,186,5.0,11.0,59,0.00,,,0.00,meteohub,2013-07-14 17:42:00,
2013-07-14 12:47:00,84.6,69.6,30.19,SSW,199,0.0,11.0,61,0.00,,,0.00,meteohub,2013-07-14 17:47:00,
2013-07-14 12:52:00,84.6,69.1,30.19,South,189,3.0,11.0,60,0.00,,,0.00,meteohub,2013-07-14 17:52:00,
2013-07-14 12:57:00,84.7,69.3,30.19,SSW,200,6.0,11.0,60,0.00,,,0.00,meteohub,2013-07-14 17:57:00,
2013-07-14 13:02:00,84.6,67.1,30.19,South,182,8.0,10.0,56,0.00,,,0.00,meteohub,2013-07-14 18:02:00,
2013-07-14 13:07:00,84.6,67.1,30.19,South,186,6.0,10.0,56,0.00,,,0.00,meteohub,2013-07-14 18:07:00,
2013-07-14 13:12:00,84.9,66.9,30.19,South,190,7.0,10.0,55,0.00,,,0.00,meteohub,2013-07-14 18:12:00,
2013-07-14 13:17:00,84.9,68.0,30.19,SE,136,4.0,10.0,57,0.00,,,0.00,meteohub,2013-07-14 18:17:00,
2013-07-14 13:22:00,85.3,69.3,30.19,SSW,202,4.0,9.0,59,0.00,,,0.00,meteohub,2013-07-14 18:22:00,
2013-07-14 13:27:00,85.5,68.5,30.19,South,188,2.0,9.0,57,0.00,,,0.00,meteohub,2013-07-14 18:27:00,
2013-07-14 13:32:00,85.5,68.5,30.19,SSW,209,3.0,9.0,57,0.00,,,0.00,meteohub,2013-07-14 18:32:00,
2013-07-14 13:37:00,85.5,68.5,30.19,SSW,211,6.0,9.0,57,0.00,,,0.00,meteohub,2013-07-14 18:37:00,
2013-07-14 13:42:00,85.5,66.9,30.19,SSE,148,5.0,9.0,54,0.00,,,0.00,meteohub,2013-07-14 18:42:00,
2013-07-14 13:47:00,85.5,68.0,30.19,SSE,152,5.0,9.0,56,0.00,,,0.00,meteohub,2013-07-14 18:47:00,
2013-07-14 13:52:00,85.6,68.7,30.19,SSW,198,7.0,9.0,57,0.00,,,0.00,meteohub,2013-07-14 18:52:00,
2013-07-14 13:57:00,85.8,67.8,30.18,SSW,205,2.0,11.0,55,0.00,,,0.00,meteohub,2013-07-14 18:57:00,
2013-07-14 14:02:00,86.2,68.7,30.18,South,180,5.0,11.0,56,0.00,,,0.00,meteohub,2013-07-14 19:02:00,
2013-07-14 14:07:00,86.0,68.5,30.19,SSW,199,7.0,11.0,56,0.00,,,0.00,meteohub,2013-07-14 19:07:00,
2013-07-14 14:12:00,86.0,68.5,30.18,South,190,1.0,11.0,56,0.00,,,0.00,meteohub,2013-07-14 19:12:00,
2013-07-14 14:17:00,86.4,69.3,30.19,SSW,211,6.0,11.0,57,0.00,,,0.00,meteohub,2013-07-14 19:17:00,
2013-07-14 14:22:00,86.2,68.2,30.19,SW,217,5.0,9.0,55,0.00,,,0.00,meteohub,2013-07-14 19:22:00,
2013-07-14 14:27:00,86.4,68.4,30.19,South,188,9.0,9.0,55,0.00,,,0.00,meteohub,2013-07-14 19:27:00,
2013-07-14 14:32:00,86.2,68.2,30.18,South,186,3.0,11.0,55,0.00,,,0.00,meteohub,2013-07-14 19:32:00,
2013-07-14 14:37:00,86.0,67.5,30.18,South,169,4.0,11.0,54,0.00,,,0.00,meteohub,2013-07-14 19:37:00,
2013-07-14 14:42:00,86.2,69.1,30.18,SSW,199,2.0,11.0,57,0.00,,,0.00,meteohub,2013-07-14 19:42:00,
2013-07-14 14:47:00,86.5,68.4,30.17,South,185,2.0,10.0,55,0.00,,,0.00,meteohub,2013-07-14 19:47:00,
2013-07-14 14:52:00,86.7,69.1,30.17,SSW,202,4.0,9.0,56,0.00,,,0.00,meteohub,2013-07-14 19:52:00,
2013-07-14 14:57:00,86.5,68.4,30.17,SSW,194,3.0,10.0,55,0.00,,,0.00,meteohub,2013-07-14 19:57:00,
2013-07-14 15:02:00,86.4,68.7,30.17,SSW,209,5.0,10.0,56,0.00,,,0.00,meteohub,2013-07-14 20:02:00,
2013-07-14 15:07:00,86.5,68.0,30.17,SSW,206,3.0,10.0,54,0.00,,,0.00,meteohub,2013-07-14 20:07:00,
2013-07-14 15:12:00,86.5,68.0,30.17,SSE,163,5.0,8.0,54,0.00,,,0.00,meteohub,2013-07-14 20:12:00,
2013-07-14 15:17:00,86.4,67.8,30.17,SSE,156,0.0,10.0,54,0.00,,,0.00,meteohub,2013-07-14 20:17:00,
2013-07-14 15:22:00,86.7,68.5,30.17,SSW,198,4.0,10.0,55,0.00,,,0.00,meteohub,2013-07-14 20:22:00,
2013-07-14 15:27:00,86.5,69.4,30.17,SSW,194,7.0,10.0,57,0.00,,,0.00,meteohub,2013-07-14 20:27:00,
2013-07-14 15:32:00,86.7,69.1,30.17,SSW,207,4.0,10.0,56,0.00,,,0.00,meteohub,2013-07-14 20:32:00,
2013-07-14 15:37:00,86.5,68.9,30.17,SW,215,3.0,12.0,56,0.00,,,0.00,meteohub,2013-07-14 20:37:00,
2013-07-14 15:42:00,86.5,68.4,30.17,South,186,0.0,12.0,55,0.00,,,0.00,meteohub,2013-07-14 20:42:00,
2013-07-14 15:47:00,87.1,68.4,30.17,South,182,4.0,12.0,54,0.00,,,0.00,meteohub,2013-07-14 20:47:00,
2013-07-14 15:52:00,87.1,69.4,30.17,SSW,211,6.0,7.0,56,0.00,,,0.00,meteohub,2013-07-14 20:52:00,
2013-07-14 15:57:00,87.1,68.9,30.17,SW,219,2.0,8.0,55,0.00,,,0.00,meteohub,2013-07-14 20:57:00,
2013-07-14 16:02:00,87.3,69.6,30.17,SSW,199,5.0,9.0,56,0.00,,,0.00,meteohub,2013-07-14 21:02:00,
2013-07-14 16:07:00,87.3,69.6,30.17,South,191,8.0,9.0,56,0.00,,,0.00,meteohub,2013-07-14 21:07:00,
2013-07-14 16:12:00,87.1,68.9,30.17,SSW,196,7.0,9.0,55,0.00,,,0.00,meteohub,2013-07-14 21:12:00,
2013-07-14 16:17:00,86.7,69.1,30.17,SSW,198,4.0,9.0,56,0.00,,,0.00,meteohub,2013-07-14 21:17:00,
2013-07-14 16:22:00,87.1,68.9,30.17,South,175,6.0,9.0,55,0.00,,,0.00,meteohub,2013-07-14 21:22:00,
2013-07-14 16:27:00,87.3,69.6,30.17,SSE,155,4.0,9.0,56,0.00,,,0.00,meteohub,2013-07-14 21:27:00,
2013-07-14 16:32:00,87.1,68.4,30.17,ESE,119,2.0,8.0,54,0.00,,,0.00,meteohub,2013-07-14 21:32:00,
2013-07-14 16:37:00,86.9,69.3,30.16,SE,130,4.0,9.0,56,0.00,,,0.00,meteohub,2013-07-14 21:37:00,
2013-07-14 16:42:00,86.9,69.3,30.16,SE,142,4.0,9.0,56,0.00,,,0.00,meteohub,2013-07-14 21:42:00,
2013-07-14 16:47:00,86.9,68.7,30.16,ESE,123,7.0,8.0,55,0.00,,,0.00,meteohub,2013-07-14 21:47:00,
2013-07-14 16:52:00,86.4,69.3,30.16,SE,136,5.0,9.0,57,0.00,,,0.00,meteohub,2013-07-14 21:52:00,
2013-07-14 16:57:00,85.6,69.1,30.16,SE,138,3.0,9.0,58,0.00,,,0.00,meteohub,2013-07-14 21:57:00,
2013-07-14 17:02:00,85.5,69.4,30.16,SE,138,3.0,9.0,59,0.00,,,0.00,meteohub,2013-07-14 22:02:00,
2013-07-14 17:07:00,85.5,70.0,30.16,SE,138,3.0,8.0,60,0.00,,,0.00,meteohub,2013-07-14 22:07:00,
2013-07-14 17:12:00,85.6,69.1,30.16,SE,134,3.0,8.0,58,0.00,,,0.00,meteohub,2013-07-14 22:12:00,
2013-07-14 17:17:00,85.8,68.9,30.16,SSE,150,2.0,8.0,57,0.00,,,0.00,meteohub,2013-07-14 22:17:00,
2013-07-14 17:22:00,86.0,68.9,30.16,SE,135,3.0,9.0,57,0.00,,,0.00,meteohub,2013-07-14 22:22:00,
2013-07-14 17:27:00,86.2,69.1,30.16,SE,134,0.0,9.0,57,0.00,,,0.00,meteohub,2013-07-14 22:27:00,
2013-07-14 17:32:00,86.2,69.6,30.16,SSE,161,4.0,9.0,58,0.00,,,0.00,meteohub,2013-07-14 22:32:00,
2013-07-14 17:37:00,85.8,69.8,30.16,SE,146,3.0,7.0,59,0.00,,,0.00,meteohub,2013-07-14 22:37:00,
2013-07-14 17:42:00,85.6,69.6,30.16,SE,142,4.0,8.0,59,0.00,,,0.00,meteohub,2013-07-14 22:42:00,
2013-07-14 17:47:00,85.6,69.1,30.16,SE,141,3.0,8.0,58,0.00,,,0.00,meteohub,2013-07-14 22:47:00,
2013-07-14 17:52:00,85.8,69.8,30.16,SE,136,0.0,8.0,59,0.00,,,0.00,meteohub,2013-07-14 22:52:00,
2013-07-14 17:57:00,86.2,69.6,30.16,ESE,121,4.0,8.0,58,0.00,,,0.00,meteohub,2013-07-14 22:57:00,
2013-07-14 18:02:00,86.2,70.2,30.16,SE,129,3.0,8.0,59,0.00,,,0.00,meteohub,2013-07-14 23:02:00,
2013-07-14 18:07:00,85.6,68.7,30.16,SE,130,4.0,9.0,57,0.00,,,0.00,meteohub,2013-07-14 23:07:00,
2013-07-14 18:12:00,85.6,69.6,30.16,SE,132,2.0,9.0,59,0.00,,,0.00,meteohub,2013-07-14 23:12:00,
2013-07-14 18:17:00,85.5,69.4,30.15,East,100,6.0,9.0,59,0.00,,,0.00,meteohub,2013-07-14 23:17:00,
2013-07-14 18:22:00,85.3,69.8,30.16,SE,134,4.0,9.0,60,0.00,,,0.00,meteohub,2013-07-14 23:22:00,
2013-07-14 18:27:00,84.9,69.4,30.16,SE,128,5.0,10.0,60,0.00,,,0.00,meteohub,2013-07-14 23:27:00,
2013-07-14 18:32:00,84.7,69.3,30.16,SE,130,5.0,10.0,60,0.00,,,0.00,meteohub,2013-07-14 23:32:00,
2013-07-14 18:37:00,84.7,69.8,30.16,ESE,119,4.0,9.0,61,0.00,,,0.00,meteohub,2013-07-14 23:37:00,
2013-07-14 18:42:00,84.4,69.4,30.16,ESE,112,3.0,8.0,61,0.00,,,0.00,meteohub,2013-07-14 23:42:00,
2013-07-14 18:47:00,84.2,69.3,30.16,ESE,115,5.0,8.0,61,0.00,,,0.00,meteohub,2013-07-14 23:47:00,
2013-07-14 18:52:00,84.0,69.1,30.16,ESE,122,3.0,8.0,61,0.00,,,0.00,meteohub,2013-07-14 23:52:00,
2013-07-14 18:57:00,83.8,68.9,30.16,ESE,123,4.0,9.0,61,0.00,,,0.00,meteohub,2013-07-14 23:57:00,
2013-07-14 19:02:00,83.7,69.8,30.16,ESE,123,3.0,9.0,63,0.00,,,0.00,meteohub,2013-07-15 00:02:00,
2013-07-14 19:07:00,83.7,69.8,30.16,ESE,123,1.0,9.0,63,0.00,,,0.00,meteohub,2013-07-15 00:07:00,
2013-07-14 19:12:00,83.7,70.2,30.16,ESE,123,7.0,8.0,64,0.00,,,0.00,meteohub,2013-07-15 00:12:00,
2013-07-14 19:17:00,83.3,69.4,30.16,ESE,123,3.0,8.0,63,0.00,,,0.00,meteohub,2013-07-15 00:17:00,
2013-07-14 19:22:00,82.9,69.1,30.16,ESE,123,3.0,8.0,63,0.00,,,0.00,meteohub,2013-07-15 00:22:00,
2013-07-14 19:27:00,82.8,69.3,30.17,ESE,123,3.0,8.0,64,0.00,,,0.00,meteohub,2013-07-15 00:27:00,
2013-07-14 19:32:00,82.4,69.4,30.17,ESE,123,2.0,7.0,65,0.00,,,0.00,meteohub,2013-07-15 00:32:00,
2013-07-14 19:38:00,82.0,69.6,30.17,ESE,123,3.0,5.0,66,0.00,,,0.00,meteohub,2013-07-15 00:38:00,
2013-07-14 19:43:00,81.9,69.8,30.17,ESE,123,2.0,4.0,67,0.00,,,0.00,meteohub,2013-07-15 00:43:00,
2013-07-14 19:48:00,81.3,68.9,30.17,ESE,123,0.0,5.0,66,0.00,,,0.00,meteohub,2013-07-15 00:48:00,
2013-07-14 19:53:00,81.0,68.9,30.17,ESE,123,1.0,5.0,67,0.00,,,0.00,meteohub,2013-07-15 00:53:00,
2013-07-14 19:58:00,80.8,69.3,30.17,ESE,123,1.0,5.0,68,0.00,,,0.00,meteohub,2013-07-15 00:58:00,
2013-07-14 20:04:00,80.2,68.7,30.17,ESE,123,1.0,5.0,68,0.00,,,0.00,meteohub,2013-07-15 01:04:00,
2013-07-14 20:09:00,79.9,68.4,30.17,ESE,123,0.0,4.0,68,0.00,,,0.00,meteohub,2013-07-15 01:09:00,
2013-07-14 20:14:00,79.7,68.2,30.17,ESE,123,0.0,4.0,68,0.00,,,0.00,meteohub,2013-07-15 01:14:00,
2013-07-14 20:19:00,79.3,68.4,30.18,ESE,123,1.0,4.0,69,0.00,,,0.00,meteohub,2013-07-15 01:19:00,
2013-07-14 20:24:00,79.2,68.2,30.18,ESE,123,1.0,3.0,69,0.00,,,0.00,meteohub,2013-07-15 01:24:00,
2013-07-14 20:30:00,78.8,67.8,30.18,ESE,123,3.0,3.0,69,0.00,,,0.00,meteohub,2013-07-15 01:30:00,
2013-07-14 20:35:00,78.6,68.0,30.18,ESE,123,2.0,3.0,70,0.00,,,0.00,meteohub,2013-07-15 01:35:00,
2013-07-14 20:40:00,78.4,68.2,30.18,ESE,123,0.0,4.0,71,0.00,,,0.00,meteohub,2013-07-15 01:40:00,
2013-07-14 20:45:00,77.5,68.2,30.18,ESE,123,2.0,4.0,73,0.00,,,0.00,meteohub,2013-07-15 01:45:00,
2013-07-14 20:50:00,77.2,67.8,30.18,ESE,123,2.0,4.0,73,0.00,,,0.00,meteohub,2013-07-15 01:50:00,
2013-07-14 20:55:00,77.2,67.8,30.18,ESE,123,2.0,4.0,73,0.00,,,0.00,meteohub,2013-07-15 01:55:00,
2013-07-14 21:01:00,76.8,67.5,30.18,ESE,123,2.0,4.0,73,0.00,,,0.00,meteohub,2013-07-15 02:01:00,
2013-07-14 21:06:00,76.5,67.6,30.18,ESE,123,1.0,4.0,74,0.00,,,0.00,meteohub,2013-07-15 02:06:00,
2013-07-14 21:11:00,76.1,67.3,30.19,ESE,123,1.0,3.0,74,0.00,,,0.00,meteohub,2013-07-15 02:11:00,
2013-07-14 21:16:00,76.1,66.7,30.19,ESE,123,3.0,3.0,73,0.00,,,0.00,meteohub,2013-07-15 02:16:00,
2013-07-14 21:21:00,76.1,66.7,30.19,ESE,123,2.0,5.0,73,0.00,,,0.00,meteohub,2013-07-15 02:21:00,
2013-07-14 21:27:00,76.1,66.4,30.19,ESE,123,2.0,5.0,72,0.00,,,0.00,meteohub,2013-07-15 02:27:00,
2013-07-14 21:32:00,76.1,66.4,30.19,ESE,123,2.0,5.0,72,0.00,,,0.00,meteohub,2013-07-15 02:32:00,
2013-07-14 21:37:00,75.9,66.6,30.19,ESE,123,1.0,5.0,73,0.00,,,0.00,meteohub,2013-07-15 02:37:00,
2013-07-14 21:42:00,75.7,66.4,30.19,ESE,123,2.0,5.0,73,0.00,,,0.00,meteohub,2013-07-15 02:42:00,
2013-07-14 21:47:00,75.7,66.4,30.19,ESE,123,2.0,5.0,73,0.00,,,0.00,meteohub,2013-07-15 02:47:00,
2013-07-14 21:52:00,75.6,66.4,30.19,ESE,123,0.0,5.0,73,0.00,,,0.00,meteohub,2013-07-15 02:52:00,
2013-07-14 21:57:00,75.4,66.6,30.19,ESE,123,0.0,5.0,74,0.00,,,0.00,meteohub,2013-07-15 02:57:00,
2013-07-14 22:03:00,75.0,66.2,30.19,ESE,123,0.0,5.0,74,0.00,,,0.00,meteohub,2013-07-15 03:03:00,
2013-07-14 22:08:00,74.8,66.4,30.20,ESE,123,2.0,5.0,75,0.00,,,0.00,meteohub,2013-07-15 03:08:00,
2013-07-14 22:13:00,74.7,66.2,30.20,ESE,123,0.0,4.0,75,0.00,,,0.00,meteohub,2013-07-15 03:13:00,
2013-07-14 22:18:00,74.5,66.4,30.20,ESE,123,0.0,4.0,76,0.00,,,0.00,meteohub,2013-07-15 03:18:00,
2013-07-14 22:23:00,74.3,66.2,30.20,ESE,123,0.0,4.0,76,0.00,,,0.00,meteohub,2013-07-15 03:23:00,
2013-07-14 22:29:00,74.1,66.0,30.20,ESE,123,0.0,3.0,76,0.00,,,0.00,meteohub,2013-07-15 03:29:00,
2013-07-14 22:34:00,74.1,66.4,30.20,ESE,123,1.0,4.0,77,0.00,,,0.00,meteohub,2013-07-15 03:34:00,
2013-07-14 22:39:00,73.9,66.2,30.20,ESE,123,0.0,4.0,77,0.00,,,0.00,meteohub,2013-07-15 03:39:00,
2013-07-14 22:44:00,73.8,66.4,30.20,ESE,123,0.0,2.0,78,0.00,,,0.00,meteohub,2013-07-15 03:44:00,
2013-07-14 22:49:00,73.8,66.4,30.20,ESE,123,0.0,1.0,78,0.00,,,0.00,meteohub,2013-07-15 03:49:00,
2013-07-14 22:54:00,73.8,66.4,30.20,ESE,123,0.0,1.0,78,0.00,,,0.00,meteohub,2013-07-15 03:54:00,
2013-07-14 23:00:00,73.6,66.7,30.20,ESE,123,0.0,1.0,79,0.00,,,0.00,meteohub,2013-07-15 04:00:00,
2013-07-14 23:01:00,73.6,66.7,30.20,ESE,123,0.0,1.0,79,0.00,,,0.00,meteohub,2013-07-15 04:01:00,
2013-07-14 23:02:00,73.6,66.7,30.20,ESE,123,0.0,1.0,79,0.00,,,0.00,meteohub,2013-07-15 04:02:00,
2013-07-14 23:04:00,73.6,66.4,30.20,ESE,123,0.0,1.0,78,0.00,,,0.00,meteohub,2013-07-15 04:04:00,
2013-07-14 23:05:00,73.4,66.6,30.20,ESE,123,0.0,1.0,79,0.00,,,0.00,meteohub,2013-07-15 04:05:00,
2013-07-14 23:10:00,73.0,66.2,30.20,ESE,123,0.0,0.0,79,0.00,,,0.00,meteohub,2013-07-15 04:10:00,
2013-07-14 23:15:00,72.9,66.4,30.20,ESE,123,0.0,0.0,80,0.00,,,0.00,meteohub,2013-07-15 04:15:00,
2013-07-14 23:20:00,72.3,66.2,30.20,ESE,123,0.0,1.0,81,0.00,,,0.00,meteohub,2013-07-15 04:20:00,
2013-07-14 23:26:00,72.0,65.8,30.20,ESE,123,0.0,1.0,81,0.00,,,0.00,meteohub,2013-07-15 04:26:00,
2013-07-14 23:31:00,71.8,66.0,30.20,ESE,123,0.0,1.0,82,0.00,,,0.00,meteohub,2013-07-15 04:31:00,
2013-07-14 23:36:00,71.4,65.7,30.20,ESE,123,0.0,0.0,82,0.00,,,0.00,meteohub,2013-07-15 04:36:00,
2013-07-14 23:41:00,71.2,65.5,30.20,ESE,123,0.0,0.0,82,0.00,,,0.00,meteohub,2013-07-15 04:41:00,
2013-07-14 23:46:00,71.1,65.3,30.20,ESE,123,0.0,0.0,82,0.00,,,0.00,meteohub,2013-07-15 04:46:00,
2013-07-14 23:52:00,71.1,65.7,30.21,ESE,123,0.0,0.0,83,0.00,,,0.00,meteohub,2013-07-15 04:52:00,
2013-07-14 23:57:00,71.1,65.7,30.21,ESE,123,0.0,0.0,83,0.00,,,0.00,meteohub,2013-07-15 04:57:00,